Terminal Aerodrome Forecast
Issued by NWS Buffalo, NY

Home | Current Version | Previous Version | Text Only | Print | Product List | Glossary On
Versions: 1 2 3 4 5 6 7 8 9 10 11 12 13 14 15 16 17 18 19 20 21 22 23 24 25 26
000
FTUS41 KBUF 221300 AAA
TAFART
TAF AMD
KART 221357Z 2214/2312 31012G20KT P6SM OVC025
     FM221500 29014G20KT P6SM OVC025
     FM221900 27014G20KT P6SM BKN035
     FM222300 26009KT P6SM BKN035
     FM230300 25005KT P6SM SCT035
     FM230800 24004KT P6SM BKN080=

USA.gov is the U.S. government's official web portal to all federal, state and local government web resources and services.